Time;durP1;ratioP1;P1;durP2;ratioP2;P2;SDS_P1;SDS_P2;PMS_P1;PMS_P2;Temp;Humidity;BMP_temperature;BMP_pressure;BME280_temperature;BME280_humidity;BME280_pressure;Samples;Min_cycle;Max_cycle;Signal;HPM_P1;HPM_P2
2024/01/08 00:00:32;;;;;;;5.20;3.90;;;3.20;79.80;;;;;;4735338;30;20043;-87
2024/01/08 00:02:58;;;;;;;4.88;3.70;;;3.20;79.80;;;;;;4734021;30;20398;-86
2024/01/08 00:05:24;;;;;;;5.40;4.10;;;3.20;79.70;;;;;;4743451;30;20056;-86
2024/01/08 00:07:50;;;;;;;5.80;4.38;;;3.20;79.70;;;;;;4734683;30;20043;-87
2024/01/08 00:10:15;;;;;;;4.97;3.70;;;3.20;79.70;;;;;;4748577;30;20383;-86
2024/01/08 00:12:41;;;;;;;5.07;3.92;;;3.20;80.30;;;;;;4734454;30;20036;-87
2024/01/08 00:15:07;;;;;;;5.05;4.10;;;3.20;79.70;;;;;;4737154;30;20150;-87
2024/01/08 00:17:33;;;;;;;4.95;3.83;;;3.20;79.70;;;;;;4729374;30;20041;-86
2024/01/08 00:19:59;;;;;;;5.30;3.85;;;3.20;79.70;;;;;;4735339;30;20035;-87
2024/01/08 00:22:25;;;;;;;4.75;3.65;;;3.20;79.70;;;;;;4743642;30;20043;-87
2024/01/08 00:24:50;;;;;;;5.10;3.80;;;3.20;79.70;;;;;;4727261;30;20024;-87
2024/01/08 00:27:16;;;;;;;4.75;3.80;;;3.20;79.70;;;;;;4740545;30;20545;-87
2024/01/08 00:29:42;;;;;;;4.93;3.80;;;3.20;79.70;;;;;;4717260;30;20036;-87
2024/01/08 00:32:08;;;;;;;4.93;3.78;;;3.20;79.70;;;;;;4735488;30;20072;-87
2024/01/08 00:34:34;;;;;;;4.93;4.00;;;3.20;79.70;;;;;;4724150;30;20110;-85
2024/01/08 00:36:59;;;;;;;5.75;4.32;;;3.20;79.70;;;;;;4752831;30;20047;-86
2024/01/08 00:39:27;;;;;;;4.88;3.88;;;3.20;79.70;;;;;;4726882;30;20040;-86
2024/01/08 00:41:52;;;;;;;4.75;3.70;;;3.20;79.70;;;;;;4738192;30;20032;-86
2024/01/08 00:44:18;;;;;;;5.28;3.70;;;3.20;79.70;;;;;;4743684;30;20443;-87
2024/01/08 00:46:44;;;;;;;4.97;3.92;;;3.20;79.70;;;;;;4741836;30;20087;-86
2024/01/08 00:49:10;;;;;;;4.32;3.50;;;3.20;79.70;;;;;;4745645;30;20032;-86
2024/01/08 00:51:36;;;;;;;5.03;3.95;;;3.20;79.70;;;;;;4732887;30;20040;-86
2024/01/08 00:54:02;;;;;;;5.35;3.97;;;3.20;79.70;;;;;;4718667;30;20043;-87
2024/01/08 00:56:28;;;;;;;4.82;3.90;;;3.20;79.70;;;;;;4719218;30;20028;-87
2024/01/08 00:58:56;;;;;;;5.85;4.28;;;3.20;79.70;;;;;;4742011;30;20132;-87
2024/01/08 01:01:21;;;;;;;5.07;3.92;;;3.20;79.70;;;;;;4734790;30;20083;-87
2024/01/08 01:03:47;;;;;;;5.18;4.13;;;3.10;79.60;;;;;;4722277;30;20024;-86
2024/01/08 01:06:18;;;;;;;5.35;3.85;;;3.10;79.70;;;;;;4725074;30;20493;-87
2024/01/08 01:08:44;;;;;;;5.65;4.22;;;3.10;79.70;;;;;;4732188;30;20066;-88
2024/01/08 01:11:10;;;;;;;5.70;4.20;;;3.10;79.70;;;;;;4721867;30;20510;-86
2024/01/08 01:13:35;;;;;;;5.30;4.22;;;3.10;79.70;;;;;;4720746;30;20119;-86
2024/01/08 01:16:01;;;;;;;4.70;3.90;;;3.10;79.70;;;;;;4743466;30;20088;-87
2024/01/08 01:18:27;;;;;;;5.03;3.70;;;3.10;79.70;;;;;;4716244;30;20505;-87
2024/01/08 01:20:52;;;;;;;5.30;4.15;;;3.10;79.70;;;;;;4737070;30;20036;-86
2024/01/08 01:23:18;;;;;;;5.25;3.83;;;3.10;79.80;;;;;;4735705;30;20108;-85
2024/01/08 01:25:44;;;;;;;4.82;3.78;;;3.10;79.80;;;;;;4749303;30;20040;-87
2024/01/08 01:28:10;;;;;;;5.38;3.83;;;3.10;79.80;;;;;;4728947;30;20044;-87
2024/01/08 01:30:35;;;;;;;4.78;3.70;;;3.00;79.70;;;;;;4725921;30;20609;-87
2024/01/08 01:33:01;;;;;;;4.28;3.50;;;3.00;79.70;;;;;;4718998;30;20035;-87
2024/01/08 01:35:27;;;;;;;4.90;3.85;;;3.00;80.30;;;;;;4725634;30;20088;-87
2024/01/08 01:37:52;;;;;;;5.13;3.55;;;3.00;79.70;;;;;;4722529;30;20043;-87
2024/01/08 01:40:19;;;;;;;4.97;3.78;;;3.00;79.70;;;;;;4737440;30;20036;-87
2024/01/08 01:42:48;;;;;;;4.63;3.63;;;3.00;79.70;;;;;;4718807;30;20110;-87
2024/01/08 01:45:14;;;;;;;4.60;3.60;;;3.00;79.70;;;;;;4731272;30;20119;-88
2024/01/08 01:47:40;;;;;;;4.70;3.78;;;3.00;79.70;;;;;;4739306;30;20120;-87
2024/01/08 01:50:07;;;;;;;4.90;3.88;;;3.00;79.70;;;;;;4731876;30;20051;-87
2024/01/08 01:52:33;;;;;;;4.43;3.63;;;2.90;79.70;;;;;;4725369;30;20050;-86
2024/01/08 01:54:59;;;;;;;5.22;3.60;;;2.90;79.70;;;;;;4731544;30;20039;-87
2024/01/08 01:57:25;;;;;;;5.03;3.95;;;2.90;79.70;;;;;;4749323;30;20424;-87
2024/01/08 01:59:51;;;;;;;5.28;3.83;;;2.90;79.70;;;;;;4730692;30;20121;-88
2024/01/08 02:02:17;;;;;;;5.07;3.75;;;2.90;79.70;;;;;;4726184;30;20043;-87
2024/01/08 02:04:43;;;;;;;4.93;3.80;;;2.90;79.70;;;;;;4722705;30;20071;-87
2024/01/08 02:07:09;;;;;;;4.47;3.47;;;2.80;79.70;;;;;;4749905;30;20028;-87
2024/01/08 02:09:36;;;;;;;5.95;4.55;;;2.80;79.70;;;;;;4737276;30;20028;-87
2024/01/08 02:12:02;;;;;;;4.50;3.40;;;2.90;79.80;;;;;;4733666;30;20547;-87
2024/01/08 02:14:27;;;;;;;5.10;3.85;;;2.90;79.80;;;;;;4743498;30;20036;-89
2024/01/08 02:16:53;;;;;;;5.28;3.80;;;2.80;79.70;;;;;;4734761;30;20048;-88
2024/01/08 02:19:19;;;;;;;5.25;3.78;;;2.80;79.70;;;;;;4729804;30;20546;-88
2024/01/08 02:21:46;;;;;;;5.30;3.95;;;2.80;79.70;;;;;;4716770;30;20028;-88
2024/01/08 02:24:11;;;;;;;5.03;3.70;;;2.80;79.70;;;;;;4733095;30;20051;-87
2024/01/08 02:26:37;;;;;;;5.55;3.95;;;2.80;79.70;;;;;;4737021;30;20079;-88
2024/01/08 02:29:03;;;;;;;5.47;3.72;;;2.80;79.70;;;;;;4722719;30;20031;-88
2024/01/08 02:31:29;;;;;;;5.05;3.97;;;2.80;79.70;;;;;;4719280;30;20036;-88
2024/01/08 02:33:55;;;;;;;5.47;4.03;;;2.70;79.70;;;;;;4727309;30;20029;-88
2024/01/08 02:36:21;;;;;;;5.00;4.07;;;2.80;79.70;;;;;;4734136;30;20505;-88
2024/01/08 02:38:47;;;;;;;5.35;3.92;;;2.70;79.70;;;;;;4739504;30;20115;-87
2024/01/08 02:41:12;;;;;;;5.35;3.88;;;2.70;79.70;;;;;;4735360;30;20500;-88
2024/01/08 02:43:38;;;;;;;4.95;3.88;;;2.70;79.70;;;;;;4721512;30;20032;-87
2024/01/08 02:46:04;;;;;;;5.18;3.92;;;2.70;79.60;;;;;;4718292;30;20052;-88
2024/01/08 02:48:29;;;;;;;4.65;3.35;;;2.80;79.70;;;;;;4741708;30;20029;-88
2024/01/08 02:50:55;;;;;;;5.68;4.22;;;2.70;79.70;;;;;;4722391;30;20466;-88
2024/01/08 02:53:21;;;;;;;5.80;4.00;;;2.70;79.70;;;;;;4726986;30;20486;-88
2024/01/08 02:55:47;;;;;;;5.30;3.83;;;2.70;79.70;;;;;;4719429;30;20036;-88
2024/01/08 02:58:12;;;;;;;6.43;4.45;;;2.70;79.60;;;;;;4731656;30;20037;-87
2024/01/08 03:00:38;;;;;;;5.20;3.92;;;2.70;79.60;;;;;;4728603;30;20035;-87
2024/01/08 03:03:04;;;;;;;5.32;3.80;;;2.70;79.70;;;;;;4747295;30;20541;-87
2024/01/08 03:05:30;;;;;;;4.97;3.80;;;2.60;79.70;;;;;;4743368;30;20025;-87
2024/01/08 03:07:55;;;;;;;5.45;3.97;;;2.60;79.60;;;;;;4727955;30;20048;-88
2024/01/08 03:10:21;;;;;;;5.15;3.70;;;2.70;79.70;;;;;;4741541;30;20074;-88
2024/01/08 03:12:47;;;;;;;5.68;3.78;;;2.70;79.70;;;;;;4724708;30;20098;-86
2024/01/08 03:15:12;;;;;;;5.78;4.20;;;2.70;79.70;;;;;;4736537;30;20032;-88
2024/01/08 03:17:38;;;;;;;4.40;3.58;;;2.60;79.60;;;;;;4729937;30;20053;-87
2024/01/08 03:20:06;;;;;;;5.30;4.00;;;2.60;79.60;;;;;;4718414;30;20040;-88
2024/01/08 03:22:32;;;;;;;4.55;3.42;;;2.60;79.60;;;;;;4736490;30;20044;-88
2024/01/08 03:24:58;;;;;;;4.63;3.55;;;2.60;79.60;;;;;;4739427;30;20028;-88
2024/01/08 03:27:23;;;;;;;5.32;3.75;;;2.60;79.60;;;;;;4735393;30;20318;-87
2024/01/08 03:29:49;;;;;;;5.45;3.75;;;2.60;79.60;;;;;;4715659;30;20038;-87
2024/01/08 03:32:15;;;;;;;5.45;4.20;;;2.60;79.60;;;;;;4714688;30;20036;-88
2024/01/08 03:34:43;;;;;;;5.68;4.00;;;2.60;79.60;;;;;;4726689;30;20039;-88
2024/01/08 03:37:09;;;;;;;4.85;3.95;;;2.60;79.60;;;;;;4719337;30;20040;-87
2024/01/08 03:39:35;;;;;;;5.30;3.90;;;2.60;79.60;;;;;;4735892;30;20494;-87
2024/01/08 03:42:01;;;;;;;6.10;4.32;;;2.60;79.50;;;;;;4731986;30;20031;-87
2024/01/08 03:44:27;;;;;;;4.75;3.75;;;2.60;79.60;;;;;;4711284;30;20039;-88
2024/01/08 03:46:52;;;;;;;5.28;4.03;;;2.60;79.50;;;;;;4726905;30;20043;-87
2024/01/08 03:49:18;;;;;;;4.72;3.67;;;2.60;79.50;;;;;;4715892;30;20032;-88
2024/01/08 03:51:44;;;;;;;4.80;3.50;;;2.60;79.50;;;;;;4732846;30;20032;-88
2024/01/08 03:54:11;;;;;;;4.85;3.65;;;2.60;79.50;;;;;;4732833;30;20032;-87
2024/01/08 03:56:38;;;;;;;4.90;3.50;;;2.60;79.60;;;;;;4717733;30;20044;-88
2024/01/08 03:59:04;;;;;;;4.55;3.53;;;2.60;79.60;;;;;;4741685;30;20028;-88
2024/01/08 04:01:29;;;;;;;5.28;3.63;;;2.60;79.60;;;;;;4740596;30;20048;-87
2024/01/08 04:03:55;;;;;;;5.40;3.85;;;2.60;79.60;;;;;;4729546;30;20185;-87
2024/01/08 04:06:21;;;;;;;5.90;3.97;;;2.60;79.50;;;;;;4751224;30;20386;-88
2024/01/08 04:08:47;;;;;;;5.55;4.55;;;2.60;79.50;;;;;;4734202;30;20036;-88
2024/01/08 04:11:13;;;;;;;5.45;3.83;;;2.60;79.50;;;;;;4748274;30;20124;-84
2024/01/08 04:13:39;;;;;;;4.80;3.72;;;2.60;79.50;;;;;;4736118;30;20486;-88
2024/01/08 04:16:05;;;;;;;5.65;3.97;;;2.70;79.60;;;;;;4751054;30;20122;-89
2024/01/08 04:18:31;;;;;;;4.85;3.40;;;2.70;79.50;;;;;;4751132;30;20032;-88
2024/01/08 04:20:57;;;;;;;5.05;3.75;;;2.60;79.50;;;;;;4731145;30;20102;-89
2024/01/08 04:23:22;;;;;;;5.50;3.85;;;2.60;79.50;;;;;;4728465;30;20397;-88
2024/01/08 04:25:48;;;;;;;5.38;3.70;;;2.70;79.60;;;;;;4752071;30;20032;-85
2024/01/08 04:28:14;;;;;;;4.13;3.30;;;2.60;79.50;;;;;;4721531;30;20581;-87
2024/01/08 04:30:40;;;;;;;4.60;3.60;;;2.70;79.60;;;;;;4738405;30;20123;-88
2024/01/08 04:33:05;;;;;;;5.65;4.30;;;2.70;79.50;;;;;;4726722;30;20119;-88
2024/01/08 04:35:31;;;;;;;5.32;3.92;;;2.70;79.50;;;;;;4730994;30;20113;-87
2024/01/08 04:37:57;;;;;;;5.53;4.07;;;2.70;79.50;;;;;;4731302;30;20446;-88
2024/01/08 04:40:23;;;;;;;5.15;4.10;;;2.70;79.60;;;;;;4740230;30;20513;-87
2024/01/08 04:42:48;;;;;;;5.43;4.03;;;2.70;79.50;;;;;;4727075;30;20055;-89
2024/01/08 04:45:14;;;;;;;4.53;3.65;;;2.70;79.60;;;;;;4723705;30;20032;-88
2024/01/08 04:47:40;;;;;;;6.18;4.40;;;2.70;79.50;;;;;;4727671;30;20115;-88
2024/01/08 04:50:06;;;;;;;6.50;4.65;;;2.70;79.60;;;;;;4742279;30;20109;-89
2024/01/08 04:52:32;;;;;;;5.78;4.13;;;2.70;79.50;;;;;;4719358;30;20484;-89
2024/01/08 04:54:58;;;;;;;5.47;4.18;;;2.70;79.50;;;;;;4717095;30;20033;-87
2024/01/08 04:57:23;;;;;;;5.07;3.55;;;2.70;79.50;;;;;;4735666;30;20047;-89
2024/01/08 04:59:49;;;;;;;6.22;4.63;;;2.70;79.50;;;;;;4729600;30;20042;-88
2024/01/08 05:02:15;;;;;;;5.40;3.65;;;2.70;79.50;;;;;;4720654;30;20052;-89
2024/01/08 05:04:42;;;;;;;6.05;4.18;;;2.70;79.50;;;;;;4723295;30;20050;-88
2024/01/08 05:07:08;;;;;;;5.03;3.97;;;2.70;79.50;;;;;;4748133;30;20135;-88
2024/01/08 05:09:33;;;;;;;5.00;4.10;;;2.70;79.50;;;;;;4719840;30;20039;-88
2024/01/08 05:11:59;;;;;;;5.70;4.20;;;2.70;79.50;;;;;;4727015;30;20036;-88
2024/01/08 05:14:25;;;;;;;5.82;4.15;;;2.70;79.60;;;;;;4735241;30;20571;-87
2024/01/08 05:16:51;;;;;;;6.00;4.28;;;2.70;79.50;;;;;;4720423;30;20054;-89
2024/01/08 05:19:16;;;;;;;5.30;4.03;;;2.70;79.60;;;;;;4725990;30;20024;-88
2024/01/08 05:21:42;;;;;;;5.18;3.85;;;2.70;79.60;;;;;;4730639;30;20544;-88
2024/01/08 05:24:08;;;;;;;6.50;4.38;;;2.70;79.60;;;;;;4726845;30;20105;-87
2024/01/08 05:26:34;;;;;;;6.28;4.70;;;2.70;79.50;;;;;;4731669;30;20123;-89
2024/01/08 05:28:59;;;;;;;5.32;4.38;;;2.80;79.70;;;;;;4725223;30;20076;-88
2024/01/08 05:31:25;;;;;;;5.18;4.30;;;2.70;79.60;;;;;;4747764;30;20429;-88
2024/01/08 05:33:51;;;;;;;5.95;4.50;;;2.80;79.60;;;;;;4721831;30;20394;-88
2024/01/08 05:36:17;;;;;;;6.50;4.28;;;2.70;79.60;;;;;;4736424;30;20573;-88
2024/01/08 05:38:42;;;;;;;5.78;4.18;;;2.70;79.60;;;;;;4730370;30;20028;-86
2024/01/08 05:41:08;;;;;;;6.00;4.53;;;2.70;79.60;;;;;;4739235;30;20091;-89
2024/01/08 05:43:37;;;;;;;6.15;4.82;;;2.70;79.60;;;;;;4737312;30;20571;-89
2024/01/08 05:46:07;;;;;;;5.72;3.90;;;2.70;79.60;;;;;;4732202;30;20105;-89
2024/01/08 05:48:39;;;;;;;6.00;4.47;;;2.80;79.70;;;;;;4725332;30;20032;-89
2024/01/08 05:51:07;;;;;;;6.68;4.50;;;2.80;79.60;;;;;;4738394;30;20032;-87
2024/01/08 05:53:33;;;;;;;6.30;4.40;;;2.80;79.60;;;;;;4721484;30;20036;-88
2024/01/08 05:55:59;;;;;;;6.05;4.22;;;2.80;79.60;;;;;;4741735;30;20055;-87
2024/01/08 05:58:24;;;;;;;6.07;4.40;;;2.80;79.70;;;;;;4723275;30;20032;-87
2024/01/08 06:00:53;;;;;;;6.18;4.43;;;2.80;79.70;;;;;;4738183;30;20040;-88
2024/01/08 06:03:20;;;;;;;6.13;4.40;;;2.80;79.70;;;;;;4734903;30;20102;-87
2024/01/08 06:05:45;;;;;;;7.13;4.55;;;2.80;79.70;;;;;;4751781;30;20060;-90
2024/01/08 06:08:11;;;;;;;6.43;4.80;;;2.80;79.70;;;;;;4751712;30;20037;-89
2024/01/08 06:10:38;;;;;;;6.55;5.00;;;2.80;79.60;;;;;;4742737;30;20068;-86
2024/01/08 06:13:05;;;;;;;5.63;4.18;;;2.80;79.70;;;;;;4746039;30;20028;-88
2024/01/08 06:15:31;;;;;;;5.90;4.53;;;2.80;79.70;;;;;;4720192;30;20135;-86
2024/01/08 06:17:56;;;;;;;6.43;4.47;;;2.80;79.70;;;;;;4710302;30;20347;-89
2024/01/08 06:20:22;;;;;;;6.07;4.47;;;2.80;79.70;;;;;;4717703;30;20036;-91
2024/01/08 06:22:48;;;;;;;5.53;4.07;;;2.80;79.70;;;;;;4720764;30;20071;-91
2024/01/08 06:25:14;;;;;;;5.35;4.30;;;2.80;79.70;;;;;;4736335;30;20029;-89
2024/01/08 06:27:39;;;;;;;6.13;4.60;;;2.80;79.70;;;;;;4744870;30;20422;-88
2024/01/08 06:30:06;;;;;;;6.20;4.40;;;2.80;79.70;;;;;;4723390;30;20115;-94
2024/01/08 06:32:31;;;;;;;5.65;4.40;;;2.80;79.70;;;;;;4749449;30;20033;-92
2024/01/08 06:34:57;;;;;;;7.43;4.40;;;2.80;79.70;;;;;;4714720;30;20454;-87
2024/01/08 06:37:23;;;;;;;6.00;4.50;;;2.80;79.70;;;;;;4736153;30;20040;-87
2024/01/08 06:39:48;;;;;;;6.28;4.25;;;2.80;79.70;;;;;;4730127;30;20040;-88
2024/01/08 06:42:14;;;;;;;5.72;4.32;;;2.80;79.70;;;;;;4736550;30;20123;-89
2024/01/08 06:44:40;;;;;;;6.00;4.38;;;2.80;79.70;;;;;;4722519;30;20043;-89
2024/01/08 06:47:06;;;;;;;6.00;4.25;;;2.80;79.70;;;;;;4745402;30;20028;-88
2024/01/08 06:49:31;;;;;;;5.75;4.03;;;2.80;79.70;;;;;;4727735;30;20055;-88
2024/01/08 06:51:59;;;;;;;6.57;4.70;;;2.90;79.70;;;;;;4735667;30;20024;-90
2024/01/08 06:54:25;;;;;;;6.72;4.82;;;2.80;79.70;;;;;;4736450;30;20040;-90
2024/01/08 06:56:51;;;;;;;5.93;4.55;;;2.80;79.70;;;;;;4743024;30;20034;-88
2024/01/08 06:59:18;;;;;;;5.63;4.47;;;2.80;79.70;;;;;;4720674;30;20041;-88
2024/01/08 07:01:45;;;;;;;6.00;4.60;;;2.80;79.70;;;;;;4725757;30;20036;-88
2024/01/08 07:04:10;;;;;;;5.60;4.25;;;2.80;79.70;;;;;;4743824;30;20032;-89
2024/01/08 07:06:36;;;;;;;5.72;4.03;;;2.90;79.80;;;;;;4731723;30;20545;-90
2024/01/08 07:09:02;;;;;;;5.80;4.45;;;2.80;79.70;;;;;;4722207;30;20123;-89
2024/01/08 07:11:28;;;;;;;5.93;4.28;;;2.90;79.80;;;;;;4732203;30;20020;-88
2024/01/08 07:13:54;;;;;;;6.45;4.20;;;2.90;79.80;;;;;;4718447;30;20033;-89
2024/01/08 07:16:20;;;;;;;5.95;4.45;;;2.90;79.80;;;;;;4741618;30;20045;-89
2024/01/08 07:18:45;;;;;;;5.88;4.25;;;2.80;79.70;;;;;;4732319;30;20047;-90
2024/01/08 07:21:16;;;;;;;5.80;4.22;;;2.90;79.80;;;;;;4741937;30;20028;-91
2024/01/08 07:23:45;;;;;;;6.50;4.40;;;2.90;79.80;;;;;;4730204;30;20170;-91
2024/01/08 07:26:14;;;;;;;6.53;4.55;;;2.90;79.80;;;;;;4731089;30;20123;-89
2024/01/08 07:28:44;;;;;;;5.80;4.47;;;2.90;79.80;;;;;;4731040;30;20045;-88
2024/01/08 07:31:11;;;;;;;6.60;4.75;;;2.90;79.80;;;;;;4740502;30;20111;-86
2024/01/08 07:33:37;;;;;;;5.20;3.72;;;2.90;79.80;;;;;;4739115;30;20028;-87
2024/01/08 07:36:04;;;;;;;5.75;4.22;;;2.90;79.80;;;;;;4734914;30;20352;-88
2024/01/08 07:38:30;;;;;;;5.25;4.18;;;2.90;79.80;;;;;;4719952;30;20036;-89
2024/01/08 07:40:56;;;;;;;5.28;3.80;;;2.90;79.80;;;;;;4733385;30;20375;-88
2024/01/08 07:43:21;;;;;;;5.72;3.95;;;2.90;79.80;;;;;;4735048;30;20141;-93
2024/01/08 07:45:47;;;;;;;5.95;3.78;;;2.90;79.80;;;;;;4740917;30;20035;-91
2024/01/08 07:48:13;;;;;;;5.22;3.92;;;2.90;79.80;;;;;;4737072;30;20498;-95
2024/01/08 07:50:39;;;;;;;5.78;4.05;;;2.90;80.60;;;;;;4736754;30;20452;-94
2024/01/08 07:53:04;;;;;;;5.82;4.43;;;2.90;79.80;;;;;;4719932;30;20571;-84
2024/01/08 07:55:30;;;;;;;5.30;3.80;;;2.90;79.80;;;;;;4754339;30;20040;-91
2024/01/08 07:57:56;;;;;;;5.10;3.83;;;2.90;79.80;;;;;;4738939;30;20072;-92
2024/01/08 08:00:24;;;;;;;5.20;4.07;;;2.90;79.80;;;;;;4729517;30;20020;-91
2024/01/08 08:02:50;;;;;;;4.65;3.45;;;2.90;79.80;;;;;;4719761;30;20106;-91
2024/01/08 08:05:16;;;;;;;6.20;4.00;;;2.90;79.70;;;;;;4751373;30;20101;-91
2024/01/08 08:07:42;;;;;;;5.22;3.90;;;2.90;79.80;;;;;;4724602;30;20032;-94
2024/01/08 08:10:08;;;;;;;5.00;3.50;;;2.90;79.80;;;;;;4730926;30;20098;-93
2024/01/08 08:12:34;;;;;;;5.05;4.00;;;2.90;79.80;;;;;;4739180;30;20064;-93
2024/01/08 08:15:00;;;;;;;5.40;3.97;;;2.90;79.80;;;;;;4710920;30;20116;-95
2024/01/08 08:17:26;;;;;;;5.60;3.83;;;2.90;79.80;;;;;;4731753;30;20102;-93
2024/01/08 08:19:52;;;;;;;5.93;4.18;;;2.90;79.80;;;;;;4739786;30;20028;-92
2024/01/08 08:22:18;;;;;;;5.82;3.90;;;2.90;79.80;;;;;;4726296;30;20111;-93
2024/01/08 08:24:47;;;;;;;4.80;3.60;;;2.90;79.80;;;;;;4734279;30;20113;-94
2024/01/08 08:27:13;;;;;;;6.60;4.50;;;2.90;79.80;;;;;;4724024;30;20032;-95
2024/01/08 08:29:43;;;;;;;5.63;3.92;;;2.90;79.80;;;;;;4728029;30;20104;-94
2024/01/08 08:32:09;;;;;;;5.68;4.07;;;2.90;79.80;;;;;;4743070;30;20050;-94
2024/01/08 08:34:35;;;;;;;4.80;3.42;;;3.00;79.80;;;;;;4731038;30;20124;-93
2024/01/08 08:37:01;;;;;;;5.13;3.60;;;2.90;79.70;;;;;;4732180;30;20040;-93
2024/01/08 08:39:27;;;;;;;5.70;4.20;;;2.90;79.70;;;;;;4733149;30;20036;-93
2024/01/08 08:41:55;;;;;;;6.60;4.22;;;2.90;79.80;;;;;;4756131;30;20144;-93
2024/01/08 08:44:21;;;;;;;5.32;3.85;;;2.90;79.80;;;;;;4737399;30;20036;-94
2024/01/08 08:46:47;;;;;;;5.18;4.05;;;3.00;79.90;;;;;;4737893;30;20028;-94
2024/01/08 08:49:13;;;;;;;5.18;3.88;;;2.90;79.80;;;;;;4742570;30;20111;-92
2024/01/08 08:51:40;;;;;;;5.45;3.78;;;3.00;79.80;;;;;;4734517;30;20033;-95
2024/01/08 08:54:06;;;;;;;5.50;4.07;;;3.00;79.80;;;;;;4718069;30;20067;-93
2024/01/08 08:56:33;;;;;;;4.82;3.78;;;3.00;79.80;;;;;;4748562;30;20039;-93
2024/01/08 08:59:00;;;;;;;5.72;4.00;;;3.00;79.80;;;;;;4729086;30;20039;-92
2024/01/08 09:01:27;;;;;;;5.72;4.13;;;3.00;79.80;;;;;;4739784;30;20058;-92
2024/01/08 09:03:52;;;;;;;5.47;3.80;;;3.00;79.80;;;;;;4720507;30;20047;-93
2024/01/08 09:06:25;;;;;;;5.03;3.75;;;3.00;79.80;;;;;;4729818;30;20028;-92
2024/01/08 09:08:51;;;;;;;5.05;3.72;;;3.00;79.70;;;;;;4746668;30;20029;-91
2024/01/08 09:11:17;;;;;;;4.63;3.83;;;3.00;80.00;;;;;;4744863;30;20481;-92
2024/01/08 09:13:44;;;;;;;5.60;3.95;;;3.00;79.70;;;;;;4726979;30;20078;-92
2024/01/08 09:16:10;;;;;;;5.53;4.22;;;3.00;79.70;;;;;;4745018;30;20515;-92
2024/01/08 09:18:36;;;;;;;6.38;4.25;;;3.00;79.80;;;;;;4739833;30;20075;-92
2024/01/08 09:21:02;;;;;;;5.47;4.22;;;3.00;79.70;;;;;;4728574;30;20068;-92
2024/01/08 09:23:28;;;;;;;5.68;4.28;;;3.00;79.70;;;;;;4750236;30;20041;-92
2024/01/08 09:25:53;;;;;;;5.65;4.07;;;3.00;79.70;;;;;;4728135;30;20028;-88
2024/01/08 09:28:19;;;;;;;4.72;3.83;;;3.00;79.80;;;;;;4756061;30;20063;-91
2024/01/08 09:30:45;;;;;;;4.75;3.85;;;3.00;79.80;;;;;;4725440;30;20486;-91
2024/01/08 09:33:11;;;;;;;5.15;4.15;;;3.00;80.40;;;;;;4737649;30;20422;-91
2024/01/08 09:35:36;;;;;;;4.90;4.00;;;3.00;79.80;;;;;;4727110;30;20040;-89
2024/01/08 09:38:02;;;;;;;4.63;3.63;;;3.00;79.80;;;;;;4750565;30;20038;-90
2024/01/08 09:40:28;;;;;;;5.28;3.92;;;3.10;79.80;;;;;;4723916;30;20178;-90
2024/01/08 09:42:59;;;;;;;5.55;4.15;;;3.10;79.80;;;;;;4724194;30;20037;-92
2024/01/08 09:45:26;;;;;;;5.75;4.30;;;3.10;79.80;;;;;;4728949;30;20036;-90
2024/01/08 09:47:54;;;;;;;5.38;4.10;;;3.10;79.80;;;;;;4719032;30;20045;-89
2024/01/08 09:50:24;;;;;;;5.20;3.78;;;3.10;79.80;;;;;;4729335;30;20040;-89
2024/01/08 09:52:50;;;;;;;5.57;4.00;;;3.10;79.80;;;;;;4748029;30;20047;-91
2024/01/08 09:55:15;;;;;;;5.40;4.47;;;3.10;79.80;;;;;;4732589;30;20032;-90
2024/01/08 09:57:41;;;;;;;5.80;4.43;;;3.10;79.80;;;;;;4730769;30;20055;-90
2024/01/08 10:00:09;;;;;;;6.55;4.45;;;3.10;79.70;;;;;;4721194;30;20170;-88
2024/01/08 10:02:41;;;;;;;5.10;3.80;;;3.10;79.70;;;;;;4739314;30;20028;-90
2024/01/08 10:05:07;;;;;;;5.55;4.18;;;3.10;79.70;;;;;;4733283;30;20036;-89
2024/01/08 10:07:35;;;;;;;5.55;4.05;;;3.10;79.70;;;;;;4723754;30;20106;-90
2024/01/08 10:10:02;;;;;;;5.35;4.18;;;3.20;79.80;;;;;;4735224;30;20098;-89
2024/01/08 10:12:30;;;;;;;5.30;4.07;;;3.20;79.80;;;;;;4717691;30;20032;-89
2024/01/08 10:14:56;;;;;;;5.80;4.22;;;3.20;79.80;;;;;;4723164;30;20042;-89
2024/01/08 10:17:22;;;;;;;6.03;4.13;;;3.20;79.80;;;;;;4726621;30;20040;-90
2024/01/08 10:19:48;;;;;;;6.03;4.40;;;3.20;79.80;;;;;;4736382;30;20111;-88
2024/01/08 10:22:14;;;;;;;5.30;3.92;;;3.20;79.80;;;;;;4747524;30;20236;-89
2024/01/08 10:24:43;;;;;;;4.78;3.70;;;3.20;79.80;;;;;;4725409;30;20036;-90
2024/01/08 10:27:10;;;;;;;4.85;3.53;;;3.20;79.80;;;;;;4751366;30;20036;-90
2024/01/08 10:29:37;;;;;;;6.43;4.85;;;3.20;79.80;;;;;;4732754;30;20049;-90
2024/01/08 10:32:03;;;;;;;6.28;4.30;;;3.20;79.80;;;;;;4726377;30;20482;-90
2024/01/08 10:34:30;;;;;;;6.00;4.60;;;3.20;79.70;;;;;;4738305;30;20123;-90
2024/01/08 10:36:57;;;;;;;6.22;4.32;;;3.30;79.80;;;;;;4721987;30;20032;-89
2024/01/08 10:39:25;;;;;;;5.45;4.10;;;3.30;79.80;;;;;;4718689;30;20149;-91
2024/01/08 10:41:50;;;;;;;5.40;3.90;;;3.30;79.80;;;;;;4719883;30;20486;-87
2024/01/08 10:44:16;;;;;;;5.32;4.30;;;3.30;79.80;;;;;;4731620;30;20116;-89
2024/01/08 10:46:53;;;;;;;5.75;4.43;;;3.30;79.80;;;;;;4722945;30;20064;-90
2024/01/08 10:49:21;;;;;;;5.40;4.10;;;3.30;79.80;;;;;;4749296;30;20043;-90
2024/01/08 10:51:48;;;;;;;5.55;4.40;;;3.30;79.80;;;;;;4736133;30;20051;-88
2024/01/08 10:54:19;;;;;;;5.55;4.07;;;3.30;79.80;;;;;;4740357;30;20028;-85
2024/01/08 10:56:46;;;;;;;5.05;4.03;;;3.30;79.80;;;;;;4730228;30;20076;-86
2024/01/08 10:59:12;;;;;;;5.82;4.30;;;3.30;79.70;;;;;;4741712;30;20020;-85
2024/01/08 11:01:38;;;;;;;5.43;4.22;;;3.30;79.70;;;;;;4737299;30;20513;-87
2024/01/08 11:04:05;;;;;;;6.18;4.38;;;3.30;79.80;;;;;;4747953;30;20028;-85
2024/01/08 11:06:35;;;;;;;5.85;4.22;;;3.30;79.70;;;;;;4736938;30;20045;-85
2024/01/08 11:09:01;;;;;;;5.50;4.28;;;3.30;79.70;;;;;;4747648;30;20036;-85
2024/01/08 11:11:27;;;;;;;5.65;4.13;;;3.30;79.70;;;;;;4725237;30;20040;-87
2024/01/08 11:13:53;;;;;;;4.93;4.22;;;3.40;79.80;;;;;;4726254;30;20036;-86
2024/01/08 11:16:27;;;;;;;5.82;4.22;;;3.40;79.80;;;;;;4733364;30;20055;-86
2024/01/08 11:19:19;;;;;;;5.25;4.30;;;3.40;79.80;;;;;;4727202;30;20089;-86
2024/01/08 11:21:49;;;;;;;5.75;4.13;;;3.40;79.80;;;;;;4742457;30;20037;-86
2024/01/08 11:24:15;;;;;;;5.50;3.95;;;3.40;79.70;;;;;;4720625;30;20043;-86
2024/01/08 11:26:45;;;;;;;5.30;4.25;;;3.40;79.70;;;;;;4731377;30;20028;-86
2024/01/08 11:29:11;;;;;;;5.20;4.22;;;3.40;79.70;;;;;;4727821;30;20098;-85
2024/01/08 11:31:46;;;;;;;6.07;4.10;;;3.40;79.70;;;;;;4736734;30;21276;-87
2024/01/08 11:34:37;;;;;;;5.15;4.50;;;3.40;79.70;;;;;;4734467;30;20032;-88
2024/01/08 11:37:32;;;;;;;6.88;4.72;;;3.50;79.80;;;;;;4733946;30;20185;-81
2024/01/08 11:40:16;;;;;;;5.65;4.30;;;3.40;79.70;;;;;;4733205;30;20402;-84
2024/01/08 11:42:51;;;;;;;5.00;3.88;;;3.40;79.60;;;;;;4722334;30;20542;-84
2024/01/08 11:45:16;;;;;;;;;;;3.50;79.70;;;;;;4734067;30;20051;-84
2024/01/08 11:47:44;;;;;;;4.80;3.85;;;3.40;79.60;;;;;;4740515;30;20368;-85
2024/01/08 11:50:10;;;;;;;4.85;3.80;;;3.40;79.60;;;;;;4727923;30;20078;-85
2024/01/08 11:52:40;;;;;;;5.38;4.10;;;3.40;79.60;;;;;;4724132;30;20521;-86
2024/01/08 11:55:09;;;;;;;4.45;3.60;;;3.50;79.70;;;;;;4736368;30;20105;-85
2024/01/08 11:57:36;;;;;;;5.00;3.92;;;3.50;79.70;;;;;;4732642;30;20039;-87
2024/01/08 12:00:19;;;;;;;4.72;3.70;;;3.50;79.70;;;;;;4736562;30;20029;-88
2024/01/08 12:02:46;;;;;;;5.20;3.83;;;3.50;79.70;;;;;;4734023;30;20100;-87
2024/01/08 12:05:13;;;;;;;4.53;3.40;;;3.50;79.60;;;;;;4740360;30;20037;-87
2024/01/08 12:07:39;;;;;;;5.57;4.03;;;3.50;79.60;;;;;;4724480;30;20033;-86
2024/01/08 12:10:07;;;;;;;4.95;3.90;;;3.50;79.60;;;;;;4730022;30;20032;-87
2024/01/08 12:12:34;;;;;;;4.95;3.72;;;3.50;79.60;;;;;;4732864;30;20056;-82
2024/01/08 12:15:00;;;;;;;4.53;3.58;;;3.50;79.60;;;;;;4719043;30;20032;-87
2024/01/08 12:17:25;;;;;;;5.20;3.50;;;3.50;79.50;;;;;;4751773;30;20128;-86
2024/01/08 12:19:53;;;;;;;5.45;3.83;;;3.60;79.60;;;;;;4722033;30;20068;-84
2024/01/08 12:22:20;;;;;;;4.88;3.75;;;3.60;79.60;;;;;;4730460;30;20044;-86
2024/01/08 12:24:48;;;;;;;4.68;3.47;;;3.60;79.60;;;;;;4726080;30;20042;-86
2024/01/08 12:27:18;;;;;;;4.38;3.47;;;3.60;79.60;;;;;;4718994;30;20032;-87
2024/01/08 12:29:45;;;;;;;4.82;3.38;;;3.60;79.50;;;;;;4732884;30;20555;-86
2024/01/08 12:32:16;;;;;;;4.20;3.10;;;3.60;79.50;;;;;;4739462;30;20033;-86
2024/01/08 12:34:43;;;;;;;4.18;3.22;;;3.60;79.50;;;;;;4746450;30;20040;-86
2024/01/08 12:37:11;;;;;;;4.35;3.35;;;3.60;80.10;;;;;;4731097;30;20092;-86
2024/01/08 12:39:38;;;;;;;4.20;3.28;;;3.60;79.50;;;;;;4713181;30;20111;-87
2024/01/08 12:42:06;;;;;;;3.90;3.05;;;3.60;79.50;;;;;;4725278;30;20028;-87
2024/01/08 12:44:33;;;;;;;4.05;3.08;;;3.60;79.50;;;;;;4728916;30;20051;-87
2024/01/08 12:47:00;;;;;;;4.35;3.55;;;3.60;79.50;;;;;;4757176;30;20032;-87
2024/01/08 12:49:26;;;;;;;4.28;3.00;;;3.60;79.40;;;;;;4750986;30;20486;-87
2024/01/08 12:51:53;;;;;;;4.53;2.97;;;3.60;79.40;;;;;;4743295;30;20063;-87
2024/01/08 12:54:19;;;;;;;3.20;2.85;;;3.60;79.40;;;;;;4733437;30;20028;-87